Big Spring, Texas
Current Conditions -  °F | °C
As of 7:55 AM on Friday 24 Oct 2014 (Local Time) from KBPG Reporting Station
Overcast Overcast  
Wind Chill: 59°   Ceiling: 100
Heat Index: 59°   Visibility: 0.25mi
Dew Point: 58°   Wind: 3mph
Humidity: 94%   Direction: 140°SE
Pressure: 30.18"   Gusts: NA
Location:  32.25°N, 101.47°W
Report Text: KBPG 241255Z AUTO 14003KT 1/4SM OVC001 15/14 A3018 RMK AO2 T01520142
Loading
Personal Weather Stations






























Interactive Weather Map
Tropical Storm Tracking
New forecast layout! Learn more

10-Day Weather Forecast

Advertisements
Track Severe Weather on mobile